createdAt,value
2022-12-15T00:02:07.262Z,-1.35
2022-12-15T00:04:57.462Z,-1.41
2022-12-15T00:07:47.789Z,-1.45
2022-12-15T00:10:38.715Z,-1.44
2022-12-15T00:13:31.117Z,-1.45
2022-12-15T00:16:21.481Z,-1.40
2022-12-15T00:19:11.921Z,-1.37
2022-12-15T00:22:01.783Z,-1.31
2022-12-15T00:24:54.145Z,-1.34
2022-12-15T00:27:44.216Z,-1.30
2022-12-15T00:30:34.407Z,-1.33
2022-12-15T00:33:31.048Z,-1.35
2022-12-15T00:36:21.649Z,-1.37
2022-12-15T00:38:53.172Z,-1.34
2022-12-15T00:41:24.716Z,-1.30
2022-12-15T00:43:56.269Z,-1.29
2022-12-15T00:46:46.658Z,-1.28
2022-12-15T00:49:47.680Z,-1.31
2022-12-15T00:52:37.930Z,-1.29
2022-12-15T00:55:28.116Z,-1.32
2022-12-15T00:58:18.444Z,-1.33
2022-12-15T01:01:08.701Z,-1.36
2022-12-15T01:03:58.953Z,-1.44
2022-12-15T01:06:49.186Z,-1.56
2022-12-15T01:09:39.116Z,-1.59
2022-12-15T01:12:29.293Z,-1.61
2022-12-15T01:15:19.242Z,-1.67
2022-12-15T01:18:09.100Z,-1.71
2022-12-15T01:20:40.680Z,-1.79
2022-12-15T01:23:12.236Z,-1.85
2022-12-15T01:25:45.816Z,-1.88
2022-12-15T01:28:22.298Z,-1.91
2022-12-15T01:30:53.915Z,-1.95
2022-12-15T01:33:25.481Z,-2.01
2022-12-15T01:35:59.172Z,-2.09
2022-12-15T01:38:30.821Z,-2.16
2022-12-15T01:41:05.993Z,-2.21
2022-12-15T01:43:40.167Z,-2.24
2022-12-15T01:46:18.219Z,-2.28
2022-12-15T01:49:00.134Z,-2.30
2022-12-15T01:51:39.407Z,-2.35
2022-12-15T01:54:19.826Z,-2.39
2022-12-15T01:56:56.950Z,-2.43
2022-12-15T01:59:39.032Z,-2.47
2022-12-15T02:02:12.457Z,-2.54
2022-12-15T02:04:45.629Z,-2.57
2022-12-15T02:07:18.355Z,-2.62
2022-12-15T02:09:52.314Z,-2.66
2022-12-15T02:12:45.810Z,-2.70
2022-12-15T02:15:32.333Z,-2.75
2022-12-15T02:18:32.448Z,-2.79
2022-12-15T02:21:42.517Z,-2.86
2022-12-15T02:24:35.053Z,-2.91
2022-12-15T02:27:15.865Z,-2.99
2022-12-15T02:30:10.089Z,-3.04
2022-12-15T02:32:54.594Z,-3.05
2022-12-15T02:35:44.818Z,-3.06
2022-12-15T02:38:28.558Z,-3.05
2022-12-15T02:41:02.228Z,-3.06
2022-12-15T02:43:38.853Z,-3.08
2022-12-15T02:46:35.426Z,-3.10
2022-12-15T02:49:17.996Z,-3.14
2022-12-15T02:51:52.574Z,-3.13
2022-12-15T02:54:54.817Z,-3.12
2022-12-15T02:57:44.333Z,-3.11
2022-12-15T03:00:17.652Z,-3.07
2022-12-15T03:02:53.593Z,-3.07
2022-12-15T03:05:25.896Z,-3.03
2022-12-15T03:07:57.873Z,-2.99
2022-12-15T03:10:29.564Z,-2.94
2022-12-15T03:13:01.120Z,-2.92
2022-12-15T03:15:35.466Z,-2.88
2022-12-15T03:18:07.373Z,-2.90
2022-12-15T03:20:40.093Z,-2.89
2022-12-15T03:23:11.775Z,-2.87
2022-12-15T03:25:46.525Z,-2.81
2022-12-15T03:28:21.863Z,-2.77
2022-12-15T03:30:53.383Z,-2.77
2022-12-15T03:33:25.085Z,-2.74
2022-12-15T03:35:56.736Z,-2.70
2022-12-15T03:38:28.368Z,-2.68
2022-12-15T03:40:59.882Z,-2.66
2022-12-15T03:43:31.823Z,-2.66
2022-12-15T03:46:03.824Z,-2.66
2022-12-15T03:48:35.456Z,-2.68
2022-12-15T03:51:07.092Z,-2.71
2022-12-15T03:53:38.684Z,-2.78
2022-12-15T03:56:10.315Z,-2.80
2022-12-15T03:58:41.871Z,-2.79
2022-12-15T04:01:26.350Z,-2.74
2022-12-15T04:04:01.294Z,-2.72
2022-12-15T04:06:33.277Z,-2.73
2022-12-15T04:09:04.913Z,-2.78
2022-12-15T04:11:36.476Z,-2.76
2022-12-15T04:14:09.396Z,-2.74
2022-12-15T04:16:40.992Z,-2.78
2022-12-15T04:19:31.219Z,-2.76
2022-12-15T04:22:03.658Z,-2.72
2022-12-15T04:24:53.874Z,-2.73
2022-12-15T04:27:44.176Z,-2.71
2022-12-15T04:30:35.003Z,-2.67
2022-12-15T04:33:30.637Z,-2.73
2022-12-15T04:36:21.669Z,-2.76
2022-12-15T04:39:11.792Z,-2.77
2022-12-15T04:42:02.030Z,-2.74
2022-12-15T04:44:51.971Z,-2.73
2022-12-15T04:47:42.079Z,-2.69
2022-12-15T04:50:32.627Z,-2.62
2022-12-15T04:53:31.808Z,-2.64
2022-12-15T04:56:28.852Z,-2.61
2022-12-15T04:59:19.322Z,-2.58
2022-12-15T05:02:10.055Z,-2.62
2022-12-15T05:05:00.338Z,-2.64
2022-12-15T05:07:50.482Z,-2.67
2022-12-15T05:10:40.735Z,-2.74
2022-12-15T05:13:31.254Z,-2.81
2022-12-15T05:16:23.862Z,-2.77
2022-12-15T05:19:14.276Z,-2.78
2022-12-15T05:22:04.499Z,-2.81
2022-12-15T05:24:54.830Z,-2.82
2022-12-15T05:27:44.740Z,-2.82
2022-12-15T05:30:35.446Z,-2.82
2022-12-15T05:33:07.073Z,-2.87
2022-12-15T05:35:38.894Z,-2.91
2022-12-15T05:38:10.603Z,-2.86
2022-12-15T05:40:42.623Z,-2.80
2022-12-15T05:43:14.223Z,-2.84
2022-12-15T05:45:45.792Z,-2.92
2022-12-15T05:48:17.568Z,-2.89
2022-12-15T05:50:50.599Z,-2.99
2022-12-15T05:53:22.277Z,-3.01
2022-12-15T05:56:01.433Z,-2.99
2022-12-15T05:58:33.172Z,-2.95
2022-12-15T06:01:04.770Z,-2.95
2022-12-15T06:03:36.388Z,-2.88
2022-12-15T06:06:09.345Z,-2.83
2022-12-15T06:08:42.469Z,-2.84
2022-12-15T06:11:16.482Z,-2.94
2022-12-15T06:13:48.745Z,-2.92
2022-12-15T06:16:21.942Z,-2.91
2022-12-15T06:18:57.185Z,-2.89
2022-12-15T06:21:31.707Z,-2.82
2022-12-15T06:24:07.348Z,-2.77
2022-12-15T06:26:43.317Z,-2.72
2022-12-15T06:29:15.604Z,-2.67
2022-12-15T06:31:47.535Z,-2.66
2022-12-15T06:34:19.226Z,-2.65
2022-12-15T06:36:50.886Z,-2.68
2022-12-15T06:39:22.454Z,-2.69
2022-12-15T06:41:54.036Z,-2.70
2022-12-15T06:44:28.562Z,-2.70
2022-12-15T06:47:00.252Z,-2.71
2022-12-15T06:49:32.052Z,-2.71
2022-12-15T06:52:03.680Z,-2.72
2022-12-15T06:54:35.245Z,-2.70
2022-12-15T06:57:06.819Z,-2.71
2022-12-15T06:59:39.212Z,-2.72
2022-12-15T07:02:16.928Z,-2.68
2022-12-15T07:04:48.663Z,-2.73
2022-12-15T07:07:20.582Z,-2.73
2022-12-15T07:09:52.154Z,-2.71
2022-12-15T07:12:23.742Z,-2.68
2022-12-15T07:14:55.310Z,-2.74
2022-12-15T07:17:26.991Z,-2.84
2022-12-15T07:19:58.572Z,-2.81
2022-12-15T07:22:33.648Z,-2.75
2022-12-15T07:25:05.814Z,-2.67
2022-12-15T07:27:37.484Z,-2.56
2022-12-15T07:30:09.533Z,-2.38
2022-12-15T07:32:41.848Z,-2.18
2022-12-15T07:35:13.449Z,-2.01
2022-12-15T07:37:45.306Z,-2.12
2022-12-15T07:40:17.533Z,-1.90
2022-12-15T07:42:49.109Z,-1.54
2022-12-15T07:45:21.879Z,-1.38
2022-12-15T07:47:53.589Z,-1.30
2022-12-15T07:50:25.164Z,-1.23
2022-12-15T07:52:58.012Z,-1.23
2022-12-15T07:55:57.356Z,-1.20
2022-12-15T07:58:21.202Z,-1.41
2022-12-15T08:01:01.861Z,-1.28
2022-12-15T08:03:34.221Z,-1.04
2022-12-15T08:06:08.201Z,-0.79
2022-12-15T08:08:40.568Z,-0.48
2022-12-15T08:11:14.685Z,-0.45
2022-12-15T08:14:03.558Z,-0.38
2022-12-15T08:16:36.948Z,-0.56
2022-12-15T08:19:13.165Z,-0.38
2022-12-15T08:21:46.777Z,1.06
2022-12-15T08:24:19.397Z,3.09
2022-12-15T08:26:51.006Z,4.99
2022-12-15T08:29:50.315Z,6.41
2022-12-15T08:32:16.855Z,7.88
2022-12-15T08:34:49.761Z,8.95
2022-12-15T08:37:21.402Z,10.04
2022-12-15T08:39:53.109Z,10.58
2022-12-15T08:42:24.804Z,10.91
2022-12-15T08:44:56.571Z,11.01
2022-12-15T08:47:28.236Z,11.34
2022-12-15T08:49:59.996Z,11.74
2022-12-15T08:52:31.881Z,12.26
2022-12-15T08:55:03.891Z,12.83
2022-12-15T08:57:43.166Z,13.51
2022-12-15T09:00:16.093Z,14.30
2022-12-15T09:02:47.823Z,15.13
2022-12-15T09:05:19.682Z,15.55
2022-12-15T09:08:04.654Z,15.58
2022-12-15T09:10:47.654Z,15.87
2022-12-15T09:13:24.908Z,16.00
2022-12-15T09:16:13.333Z,16.31
2022-12-15T09:18:47.944Z,16.57
2022-12-15T09:21:25.197Z,16.68
2022-12-15T09:24:00.877Z,16.83
2022-12-15T09:26:34.579Z,16.91
2022-12-15T09:29:06.320Z,16.93
2022-12-15T09:31:39.006Z,17.15
2022-12-15T09:34:14.990Z,17.37
2022-12-15T09:36:46.619Z,17.95
2022-12-15T09:39:18.487Z,18.31
2022-12-15T09:41:55.049Z,18.77
2022-12-15T09:44:28.980Z,19.06
2022-12-15T09:47:22.077Z,19.39
2022-12-15T09:49:59.229Z,19.70
2022-12-15T09:52:39.672Z,19.59
2022-12-15T09:55:23.264Z,19.82
2022-12-15T09:58:14.214Z,19.60
2022-12-15T10:00:58.166Z,19.05
2022-12-15T10:03:55.646Z,19.07
2022-12-15T10:06:35.980Z,19.45
2022-12-15T10:09:21.454Z,19.70
2022-12-15T10:12:11.954Z,20.04
2022-12-15T10:14:50.140Z,20.44
2022-12-15T10:17:26.246Z,20.78
2022-12-15T10:20:13.295Z,20.52
2022-12-15T10:22:45.126Z,20.48
2022-12-15T10:28:52.293Z,20.69
2022-12-15T10:31:45.135Z,20.14
2022-12-15T10:34:43.565Z,19.51
2022-12-15T10:37:18.924Z,19.53
2022-12-15T10:39:51.312Z,20.03
2022-12-15T10:42:27.196Z,20.06
2022-12-15T10:44:59.213Z,19.69
2022-12-15T10:47:32.075Z,19.19
2022-12-15T10:50:25.091Z,18.98
2022-12-15T10:52:57.073Z,19.14
2022-12-15T10:55:36.005Z,19.12
2022-12-15T10:58:20.746Z,19.23
2022-12-15T11:01:14.972Z,19.60
2022-12-15T11:03:51.507Z,19.97
2022-12-15T11:06:33.767Z,20.43
2022-12-15T11:09:35.885Z,20.52
2022-12-15T11:12:50.721Z,20.51
2022-12-15T11:15:22.377Z,20.70
2022-12-15T11:18:02.790Z,20.53
2022-12-15T11:20:38.489Z,20.48
2022-12-15T11:23:30.470Z,20.73
2022-12-15T11:26:14.085Z,20.64
2022-12-15T11:28:56.368Z,20.46
2022-12-15T11:31:40.248Z,19.84
2022-12-15T11:34:17.819Z,19.62
2022-12-15T11:37:14.677Z,19.39
2022-12-15T11:40:15.382Z,19.27
2022-12-15T11:42:52.865Z,19.17
2022-12-15T11:45:44.659Z,18.73
2022-12-15T11:48:21.283Z,18.73
2022-12-15T11:50:59.840Z,18.44
2022-12-15T11:53:50.298Z,18.11
2022-12-15T11:56:31.328Z,17.78
2022-12-15T11:59:21.245Z,17.27
2022-12-15T12:02:02.479Z,16.51
2022-12-15T12:04:58.077Z,15.82
2022-12-15T12:07:45.314Z,15.43
2022-12-15T12:10:44.997Z,14.68
2022-12-15T12:13:50.353Z,14.68
2022-12-15T12:16:30.759Z,14.96
2022-12-15T12:19:06.447Z,14.89
2022-12-15T12:21:44.970Z,14.73
2022-12-15T12:24:26.372Z,14.55
2022-12-15T12:27:22.467Z,14.16
2022-12-15T12:30:02.689Z,12.95
2022-12-15T12:32:59.899Z,11.47
2022-12-15T12:35:47.120Z,10.14
2022-12-15T12:38:29.322Z,9.50
2022-12-15T12:41:23.491Z,8.66
2022-12-15T12:43:58.218Z,7.68
2022-12-15T12:46:39.201Z,6.97
2022-12-15T12:49:33.419Z,6.48
2022-12-15T12:52:13.717Z,5.96
2022-12-15T12:55:01.988Z,5.36
2022-12-15T12:57:36.599Z,4.46
2022-12-15T13:00:08.216Z,4.03
2022-12-15T13:03:13.423Z,3.64
2022-12-15T13:05:50.428Z,3.18
2022-12-15T13:08:45.282Z,3.16
2022-12-15T13:11:45.475Z,2.47
2022-12-15T13:14:25.907Z,2.24
2022-12-15T13:17:26.062Z,2.14
2022-12-15T13:20:01.310Z,2.05
2022-12-15T13:22:34.236Z,1.88
2022-12-15T13:25:35.838Z,1.70
2022-12-15T13:28:18.708Z,1.60
2022-12-15T13:31:21.324Z,1.54
2022-12-15T13:34:01.223Z,1.47
2022-12-15T13:36:42.030Z,1.17
2022-12-15T13:39:16.301Z,0.88
2022-12-15T13:42:23.765Z,0.58
2022-12-15T13:44:51.811Z,0.41
2022-12-15T13:47:28.022Z,0.41
2022-12-15T13:50:08.540Z,0.20
2022-12-15T13:56:07.098Z,-0.19
2022-12-15T13:58:47.891Z,-0.24
2022-12-15T14:01:30.153Z,-0.31
2022-12-15T14:04:15.621Z,-0.49
2022-12-15T14:07:00.738Z,-0.44
2022-12-15T14:09:41.899Z,-0.63
2022-12-15T14:12:14.166Z,-0.60
2022-12-15T14:17:39.334Z,-0.62
2022-12-15T14:20:17.922Z,-0.70
2022-12-15T14:22:52.353Z,-0.86
2022-12-15T14:25:29.663Z,-0.82
2022-12-15T14:28:07.761Z,-0.77
2022-12-15T14:30:42.380Z,-0.85
2022-12-15T14:33:18.200Z,-0.83
2022-12-15T14:35:53.498Z,-0.79
2022-12-15T14:38:32.095Z,-0.93
2022-12-15T14:41:06.115Z,-0.98
2022-12-15T14:43:40.045Z,-1.09
2022-12-15T14:46:18.706Z,-1.19
2022-12-15T14:49:01.010Z,-1.13
2022-12-15T14:51:44.183Z,-1.12
2022-12-15T14:54:38.270Z,-1.33
2022-12-15T14:57:15.362Z,-1.40
2022-12-15T14:59:54.448Z,-1.42
2022-12-15T15:02:29.562Z,-1.40
2022-12-15T15:03:03.980Z,20.73
2022-12-15T15:05:04.693Z,-1.37
2022-12-15T15:07:38.701Z,-1.41
2022-12-15T15:10:27.954Z,-1.38
2022-12-15T15:12:59.766Z,-1.33
2022-12-15T15:15:31.482Z,-1.30
2022-12-15T15:18:03.124Z,-1.35
2022-12-15T15:20:35.986Z,-1.40
2022-12-15T15:23:07.498Z,-1.43
2022-12-15T15:25:41.570Z,-1.51
2022-12-15T15:28:17.979Z,-1.55
2022-12-15T15:30:59.315Z,-1.66
2022-12-15T15:33:31.508Z,-1.74
2022-12-15T15:36:04.311Z,-1.77
2022-12-15T15:38:39.547Z,-1.72
2022-12-15T15:41:14.011Z,-1.68
2022-12-15T15:43:46.079Z,-1.62
2022-12-15T15:46:27.687Z,-1.64
2022-12-15T15:49:03.068Z,-1.73
2022-12-15T15:51:38.253Z,-1.78
2022-12-15T15:54:25.032Z,-1.80
2022-12-15T15:56:56.647Z,-1.78
2022-12-15T15:59:29.015Z,-1.76
2022-12-15T16:02:02.180Z,-1.75
2022-12-15T16:04:36.321Z,-1.83
2022-12-15T16:07:20.693Z,-1.96
2022-12-15T16:09:53.435Z,-2.03
2022-12-15T16:12:33.472Z,-2.09
2022-12-15T16:15:23.777Z,-2.11
2022-12-15T16:17:55.522Z,-2.19
2022-12-15T16:20:29.179Z,-2.20
2022-12-15T16:23:05.584Z,-2.23
2022-12-15T16:25:48.498Z,-2.29
2022-12-15T16:28:25.114Z,-2.37
2022-12-15T16:30:58.794Z,-2.40
2022-12-15T16:33:30.440Z,-2.45
2022-12-15T16:36:02.157Z,-2.45
2022-12-15T16:38:34.214Z,-2.50
2022-12-15T16:41:08.276Z,-2.48
2022-12-15T16:43:46.031Z,-2.54
2022-12-15T16:46:20.563Z,-2.61
2022-12-15T16:48:52.297Z,-2.64
2022-12-15T16:51:40.189Z,-2.68
2022-12-15T16:54:24.297Z,-2.66
2022-12-15T16:56:58.078Z,-2.73
2022-12-15T16:59:34.326Z,-2.76
2022-12-15T17:02:29.088Z,-2.77
2022-12-15T17:05:00.938Z,-2.79
2022-12-15T17:07:32.670Z,-2.76
2022-12-15T17:10:05.461Z,-2.70
2022-12-15T17:12:37.244Z,-2.69
2022-12-15T17:15:20.608Z,-2.64
2022-12-15T17:17:53.092Z,-2.61
2022-12-15T17:20:30.040Z,-2.57
2022-12-15T17:23:07.170Z,-2.50
2022-12-15T17:28:36.725Z,-2.42
2022-12-15T17:31:18.138Z,-2.36
2022-12-15T17:33:49.864Z,-2.32
2022-12-15T17:36:28.325Z,-2.32
2022-12-15T17:39:01.239Z,-2.35
2022-12-15T17:41:58.660Z,-2.48
2022-12-15T17:44:36.245Z,-2.47
2022-12-15T17:47:09.077Z,-2.52
2022-12-15T17:49:41.729Z,-2.64
2022-12-15T17:52:28.448Z,-2.64
2022-12-15T17:55:04.290Z,-2.60
2022-12-15T17:57:35.870Z,-2.65
2022-12-15T18:00:22.359Z,-2.66
2022-12-15T18:02:55.529Z,-2.67
2022-12-15T18:05:30.885Z,-2.73
2022-12-15T18:08:10.638Z,-2.74
2022-12-15T18:10:42.754Z,-2.71
2022-12-15T18:13:14.232Z,-2.65
2022-12-15T18:15:47.116Z,-2.61
2022-12-15T18:18:20.845Z,-2.58
2022-12-15T18:20:57.007Z,-2.50
2022-12-15T18:23:32.620Z,-2.51
2022-12-15T18:26:07.529Z,-2.47
2022-12-15T18:28:39.171Z,-2.49
2022-12-15T18:31:17.645Z,-2.47
2022-12-15T18:33:50.027Z,-2.44
2022-12-15T18:36:22.559Z,-2.42
2022-12-15T18:38:54.159Z,-2.47
2022-12-15T18:41:26.457Z,-2.47
2022-12-15T18:43:58.950Z,-2.48
2022-12-15T18:46:31.003Z,-2.46
2022-12-15T18:49:02.762Z,-2.52
2022-12-15T18:51:34.530Z,-2.60
2022-12-15T18:54:15.787Z,-2.65
2022-12-15T18:56:48.357Z,-2.64
2022-12-15T18:59:19.950Z,-2.82
2022-12-15T19:01:51.756Z,-2.82
2022-12-15T19:04:23.445Z,-2.89
2022-12-15T19:06:55.378Z,-2.83
2022-12-15T19:09:30.375Z,-2.84
2022-12-15T19:12:20.377Z,-2.89
2022-12-15T19:14:55.203Z,-2.88
2022-12-15T19:17:45.797Z,-2.91
2022-12-15T19:20:38.587Z,-3.00
2022-12-15T19:23:13.185Z,-3.01
2022-12-15T19:25:46.760Z,-3.01
2022-12-15T19:28:21.465Z,-2.97
2022-12-15T19:30:53.169Z,-2.92
2022-12-15T19:33:25.133Z,-2.82
2022-12-15T19:35:57.705Z,-2.79
2022-12-15T19:38:34.358Z,-2.76
2022-12-15T19:41:05.949Z,-2.77
2022-12-15T19:43:37.604Z,-2.77
2022-12-15T19:46:20.415Z,-2.71
2022-12-15T19:48:54.267Z,-2.70
2022-12-15T19:51:26.225Z,-2.70
2022-12-15T19:53:58.305Z,-2.66
2022-12-15T19:56:30.290Z,-2.75
2022-12-15T19:59:02.960Z,-2.92
2022-12-15T20:01:34.773Z,-2.91
2022-12-15T20:04:06.483Z,-2.92
2022-12-15T20:06:38.576Z,-2.97
2022-12-15T20:09:18.442Z,-2.92
2022-12-15T20:11:50.043Z,-2.88
2022-12-15T20:14:22.359Z,-2.93
2022-12-15T20:16:54.035Z,-2.90
2022-12-15T20:19:25.770Z,-2.93
2022-12-15T20:22:01.600Z,-2.94
2022-12-15T20:24:33.596Z,-3.02
2022-12-15T20:27:12.287Z,-3.07
2022-12-15T20:29:43.956Z,-3.17
2022-12-15T20:32:19.424Z,-3.17
2022-12-15T20:34:51.028Z,-3.27
2022-12-15T20:37:28.894Z,-3.32
2022-12-15T20:40:00.634Z,-3.31
2022-12-15T20:42:32.184Z,-3.32
2022-12-15T20:45:04.188Z,-3.35
2022-12-15T20:47:39.951Z,-3.28
2022-12-15T20:50:25.152Z,-3.34
2022-12-15T20:52:56.583Z,-3.28
2022-12-15T20:55:28.684Z,-3.19
2022-12-15T20:58:00.298Z,-3.20
2022-12-15T21:00:32.277Z,-3.15
2022-12-15T21:03:16.761Z,-3.14
2022-12-15T21:05:49.659Z,-3.12
2022-12-15T21:08:27.484Z,-3.07
2022-12-15T21:11:13.780Z,-3.05
2022-12-15T21:13:47.471Z,-3.04
2022-12-15T21:16:22.753Z,-3.10
2022-12-15T21:19:19.296Z,-3.14
2022-12-15T21:21:52.011Z,-3.27
2022-12-15T21:24:25.645Z,-3.25
2022-12-15T21:26:57.349Z,-3.18
2022-12-15T21:29:29.515Z,-3.14
2022-12-15T21:32:01.165Z,-3.21
2022-12-15T21:34:32.886Z,-3.22
2022-12-15T21:37:06.365Z,-3.25
2022-12-15T21:39:38.009Z,-3.27
2022-12-15T21:42:16.158Z,-3.38
2022-12-15T21:44:48.212Z,-3.43
2022-12-15T21:47:48.855Z,-3.47
2022-12-15T21:50:20.403Z,-3.42
2022-12-15T21:52:52.223Z,-3.32
2022-12-15T21:55:26.958Z,-3.40
2022-12-15T21:57:58.515Z,-3.38
2022-12-15T22:00:30.189Z,-3.49
2022-12-15T22:03:01.924Z,-3.47
2022-12-15T22:05:33.684Z,-3.50
2022-12-15T22:08:20.217Z,-3.52
2022-12-15T22:10:52.146Z,-3.53
2022-12-15T22:13:23.789Z,-3.51
2022-12-15T22:15:55.466Z,-3.49
2022-12-15T22:18:27.250Z,-3.39
2022-12-15T22:20:58.810Z,-3.33
2022-12-15T22:23:30.382Z,-3.31
2022-12-15T22:26:02.101Z,-3.28
2022-12-15T22:28:34.324Z,-3.28
2022-12-15T22:31:06.756Z,-3.31
2022-12-15T22:33:38.406Z,-3.27
2022-12-15T22:36:09.994Z,-3.27
2022-12-15T22:38:41.601Z,-3.35
2022-12-15T22:41:19.466Z,-3.37
2022-12-15T22:43:56.259Z,-3.39
2022-12-15T22:46:27.976Z,-3.42
2022-12-15T22:48:59.566Z,-3.33
2022-12-15T22:51:31.133Z,-3.33
2022-12-15T22:54:02.741Z,-3.39
2022-12-15T22:56:38.208Z,-3.47
2022-12-15T22:59:16.277Z,-3.49
2022-12-15T23:01:47.984Z,-3.40
2022-12-15T23:04:19.650Z,-3.41
2022-12-15T23:06:51.712Z,-3.43
2022-12-15T23:09:23.470Z,-3.48
2022-12-15T23:11:55.724Z,-3.60
2022-12-15T23:14:46.433Z,-3.58
2022-12-15T23:17:17.987Z,-3.52
2022-12-15T23:19:49.614Z,-3.54
2022-12-15T23:22:21.521Z,-3.51
2022-12-15T23:24:53.051Z,-3.52
2022-12-15T23:27:24.624Z,-3.51
2022-12-15T23:29:56.176Z,-3.54
2022-12-15T23:32:27.720Z,-3.47
2022-12-15T23:34:59.290Z,-3.50
2022-12-15T23:37:30.904Z,-3.52
2022-12-15T23:40:02.656Z,-3.50
2022-12-15T23:42:35.258Z,-3.43
2022-12-15T23:45:07.549Z,-3.36
2022-12-15T23:47:39.960Z,-3.39
2022-12-15T23:50:11.716Z,-3.38
2022-12-15T23:52:43.280Z,-3.33
2022-12-15T23:55:16.987Z,-3.20
2022-12-15T23:57:48.579Z,-3.15
